sensor_id;sensor_type;location;lat;lon;timestamp;P1;durP1;ratioP1;P2;durP2;ratioP2
55483;SDS011;41345;51.704;5.146;2023-04-01T00:01:47;46.92;;;43.17;;
55483;SDS011;41345;51.704;5.146;2023-04-01T00:06:48;46.70;;;42.88;;
55483;SDS011;41345;51.704;5.146;2023-04-01T00:11:48;44.93;;;41.13;;
55483;SDS011;41345;51.704;5.146;2023-04-01T00:16:48;47.03;;;43.43;;
55483;SDS011;41345;51.704;5.146;2023-04-01T00:21:49;45.13;;;41.72;;
55483;SDS011;41345;51.704;5.146;2023-04-01T00:26:49;47.90;;;44.28;;
55483;SDS011;41345;51.704;5.146;2023-04-01T00:31:49;46.35;;;42.75;;
55483;SDS011;41345;51.704;5.146;2023-04-01T00:36:50;47.17;;;43.47;;
55483;SDS011;41345;51.704;5.146;2023-04-01T00:41:50;44.47;;;40.97;;
55483;SDS011;41345;51.704;5.146;2023-04-01T00:46:51;46.05;;;42.47;;
55483;SDS011;41345;51.704;5.146;2023-04-01T00:51:53;41.78;;;38.58;;
55483;SDS011;41345;51.704;5.146;2023-04-01T00:56:55;44.65;;;41.15;;
55483;SDS011;41345;51.704;5.146;2023-04-01T01:01:58;42.30;;;38.65;;
55483;SDS011;41345;51.704;5.146;2023-04-01T01:12:18;40.50;;;37.42;;
55483;SDS011;41345;51.704;5.146;2023-04-01T01:27:23;41.13;;;38.05;;
55483;SDS011;41345;51.704;5.146;2023-04-01T01:37:25;41.40;;;38.20;;
55483;SDS011;41345;51.704;5.146;2023-04-01T01:42:26;39.40;;;36.30;;
55483;SDS011;41345;51.704;5.146;2023-04-01T01:47:28;40.95;;;37.83;;
55483;SDS011;41345;51.704;5.146;2023-04-01T01:52:29;42.65;;;39.58;;
55483;SDS011;41345;51.704;5.146;2023-04-01T01:57:33;42.05;;;38.85;;
55483;SDS011;41345;51.704;5.146;2023-04-01T02:02:34;43.00;;;39.80;;
55483;SDS011;41345;51.704;5.146;2023-04-01T02:07:34;43.08;;;39.80;;
55483;SDS011;41345;51.704;5.146;2023-04-01T02:12:35;42.70;;;39.42;;
55483;SDS011;41345;51.704;5.146;2023-04-01T02:17:38;42.63;;;39.17;;
55483;SDS011;41345;51.704;5.146;2023-04-01T02:22:40;44.38;;;40.83;;
55483;SDS011;41345;51.704;5.146;2023-04-01T02:27:42;42.92;;;39.53;;
55483;SDS011;41345;51.704;5.146;2023-04-01T02:32:43;42.45;;;39.13;;
55483;SDS011;41345;51.704;5.146;2023-04-01T02:37:45;40.13;;;36.92;;
55483;SDS011;41345;51.704;5.146;2023-04-01T02:42:46;40.75;;;37.65;;
55483;SDS011;41345;51.704;5.146;2023-04-01T02:47:47;40.40;;;37.40;;
55483;SDS011;41345;51.704;5.146;2023-04-01T02:52:47;41.75;;;38.42;;
55483;SDS011;41345;51.704;5.146;2023-04-01T02:57:47;42.42;;;39.30;;
55483;SDS011;41345;51.704;5.146;2023-04-01T03:02:47;43.80;;;40.60;;
55483;SDS011;41345;51.704;5.146;2023-04-01T03:07:48;41.90;;;38.60;;
55483;SDS011;41345;51.704;5.146;2023-04-01T03:12:48;45.10;;;41.28;;
55483;SDS011;41345;51.704;5.146;2023-04-01T03:17:48;46.25;;;42.05;;
55483;SDS011;41345;51.704;5.146;2023-04-01T03:22:49;48.10;;;43.45;;
55483;SDS011;41345;51.704;5.146;2023-04-01T03:27:49;48.80;;;44.45;;
55483;SDS011;41345;51.704;5.146;2023-04-01T03:32:50;49.83;;;45.50;;
55483;SDS011;41345;51.704;5.146;2023-04-01T03:37:50;49.65;;;45.25;;
55483;SDS011;41345;51.704;5.146;2023-04-01T03:42:51;48.45;;;44.35;;
55483;SDS011;41345;51.704;5.146;2023-04-01T03:47:52;47.83;;;43.83;;
55483;SDS011;41345;51.704;5.146;2023-04-01T03:52:52;46.43;;;42.50;;
55483;SDS011;41345;51.704;5.146;2023-04-01T03:57:52;47.25;;;42.83;;
55483;SDS011;41345;51.704;5.146;2023-04-01T04:02:53;44.80;;;41.22;;
55483;SDS011;41345;51.704;5.146;2023-04-01T04:07:53;47.03;;;43.05;;
55483;SDS011;41345;51.704;5.146;2023-04-01T04:12:53;44.65;;;41.08;;
55483;SDS011;41345;51.704;5.146;2023-04-01T04:17:54;44.28;;;40.38;;
55483;SDS011;41345;51.704;5.146;2023-04-01T04:22:54;42.50;;;39.05;;
55483;SDS011;41345;51.704;5.146;2023-04-01T04:27:54;44.55;;;41.08;;
55483;SDS011;41345;51.704;5.146;2023-04-01T04:32:55;53.47;;;49.45;;
55483;SDS011;41345;51.704;5.146;2023-04-01T04:37:55;54.15;;;49.58;;
55483;SDS011;41345;51.704;5.146;2023-04-01T04:42:55;52.42;;;47.92;;
55483;SDS011;41345;51.704;5.146;2023-04-01T04:47:56;54.42;;;49.72;;
55483;SDS011;41345;51.704;5.146;2023-04-01T04:52:56;53.83;;;48.90;;
55483;SDS011;41345;51.704;5.146;2023-04-01T04:57:56;52.22;;;47.92;;
55483;SDS011;41345;51.704;5.146;2023-04-01T05:02:56;53.58;;;48.67;;
55483;SDS011;41345;51.704;5.146;2023-04-01T05:07:57;57.80;;;53.00;;
55483;SDS011;41345;51.704;5.146;2023-04-01T05:12:57;53.03;;;48.23;;
55483;SDS011;41345;51.704;5.146;2023-04-01T05:17:58;56.78;;;51.60;;
55483;SDS011;41345;51.704;5.146;2023-04-01T05:22:58;56.70;;;51.20;;
55483;SDS011;41345;51.704;5.146;2023-04-01T05:27:58;59.05;;;53.05;;
55483;SDS011;41345;51.704;5.146;2023-04-01T05:33:00;57.97;;;51.80;;
55483;SDS011;41345;51.704;5.146;2023-04-01T05:38:01;59.70;;;52.53;;
55483;SDS011;41345;51.704;5.146;2023-04-01T05:43:01;57.30;;;49.78;;
55483;SDS011;41345;51.704;5.146;2023-04-01T05:48:02;57.00;;;49.15;;
55483;SDS011;41345;51.704;5.146;2023-04-01T05:53:02;60.42;;;50.60;;
55483;SDS011;41345;51.704;5.146;2023-04-01T05:58:02;55.45;;;48.33;;
55483;SDS011;41345;51.704;5.146;2023-04-01T06:03:03;54.83;;;47.63;;
55483;SDS011;41345;51.704;5.146;2023-04-01T06:08:21;60.73;;;46.10;;
55483;SDS011;41345;51.704;5.146;2023-04-01T06:54:45;54.75;;;44.55;;
55483;SDS011;41345;51.704;5.146;2023-04-01T06:59:47;51.65;;;45.70;;
55483;SDS011;41345;51.704;5.146;2023-04-01T07:04:48;50.70;;;45.47;;
55483;SDS011;41345;51.704;5.146;2023-04-01T07:09:49;48.83;;;44.00;;
55483;SDS011;41345;51.704;5.146;2023-04-01T07:14:50;49.40;;;44.63;;
55483;SDS011;41345;51.704;5.146;2023-04-01T07:19:56;45.65;;;40.35;;
55483;SDS011;41345;51.704;5.146;2023-04-01T07:25:10;46.33;;;41.58;;
55483;SDS011;41345;51.704;5.146;2023-04-01T07:35:27;49.75;;;44.30;;
55483;SDS011;41345;51.704;5.146;2023-04-01T07:40:37;52.40;;;45.95;;
55483;SDS011;41345;51.704;5.146;2023-04-01T07:45:42;50.55;;;44.92;;
55483;SDS011;41345;51.704;5.146;2023-04-01T07:56:08;47.28;;;42.40;;
55483;SDS011;41345;51.704;5.146;2023-04-01T08:01:29;48.07;;;43.27;;
55483;SDS011;41345;51.704;5.146;2023-04-01T08:16:51;53.60;;;44.80;;
55483;SDS011;41345;51.704;5.146;2023-04-01T08:21:54;48.00;;;42.88;;
55483;SDS011;41345;51.704;5.146;2023-04-01T08:26:58;47.65;;;42.80;;
55483;SDS011;41345;51.704;5.146;2023-04-01T08:32:09;47.03;;;42.47;;
55483;SDS011;41345;51.704;5.146;2023-04-01T08:37:14;47.38;;;42.22;;
55483;SDS011;41345;51.704;5.146;2023-04-01T08:57:45;45.13;;;40.42;;
55483;SDS011;41345;51.704;5.146;2023-04-01T09:38:58;38.70;;;35.67;;
55483;SDS011;41345;51.704;5.146;2023-04-01T10:21:12;43.35;;;39.58;;
55483;SDS011;41345;51.704;5.146;2023-04-01T10:41:43;42.42;;;38.45;;
55483;SDS011;41345;51.704;5.146;2023-04-01T10:46:59;41.38;;;37.38;;
55483;SDS011;41345;51.704;5.146;2023-04-01T10:57:48;41.90;;;37.88;;
55483;SDS011;41345;51.704;5.146;2023-04-01T11:18:29;36.10;;;33.20;;
55483;SDS011;41345;51.704;5.146;2023-04-01T11:44:25;36.75;;;33.88;;
55483;SDS011;41345;51.704;5.146;2023-04-01T12:24:47;35.50;;;32.63;;
55483;SDS011;41345;51.704;5.146;2023-04-01T12:34:58;35.58;;;32.70;;
55483;SDS011;41345;51.704;5.146;2023-04-01T12:45:32;35.55;;;32.85;;
55483;SDS011;41345;51.704;5.146;2023-04-01T12:55:51;34.97;;;32.47;;
55483;SDS011;41345;51.704;5.146;2023-04-01T13:16:35;38.38;;;35.38;;
55483;SDS011;41345;51.704;5.146;2023-04-01T13:32:02;37.70;;;34.70;;
55483;SDS011;41345;51.704;5.146;2023-04-01T13:37:22;39.10;;;36.03;;
55483;SDS011;41345;51.704;5.146;2023-04-01T13:42:25;38.53;;;35.50;;
55483;SDS011;41345;51.704;5.146;2023-04-01T14:13:43;40.85;;;37.05;;
55483;SDS011;41345;51.704;5.146;2023-04-01T14:18:56;38.47;;;34.85;;
55483;SDS011;41345;51.704;5.146;2023-04-01T14:24:20;41.55;;;37.53;;
55483;SDS011;41345;51.704;5.146;2023-04-01T14:44:29;40.90;;;36.83;;
55483;SDS011;41345;51.704;5.146;2023-04-01T14:49:35;37.85;;;34.45;;
55483;SDS011;41345;51.704;5.146;2023-04-01T14:54:36;40.38;;;36.65;;
55483;SDS011;41345;51.704;5.146;2023-04-01T14:59:41;40.50;;;36.63;;
55483;SDS011;41345;51.704;5.146;2023-04-01T15:04:58;41.92;;;37.85;;
55483;SDS011;41345;51.704;5.146;2023-04-01T15:10:12;41.90;;;37.80;;
55483;SDS011;41345;51.704;5.146;2023-04-01T15:30:58;44.28;;;39.85;;
55483;SDS011;41345;51.704;5.146;2023-04-01T15:41:10;45.13;;;40.40;;
55483;SDS011;41345;51.704;5.146;2023-04-01T16:01:57;46.08;;;41.78;;
55483;SDS011;41345;51.704;5.146;2023-04-01T16:07:02;46.50;;;42.47;;
55483;SDS011;41345;51.704;5.146;2023-04-01T16:12:20;45.50;;;41.60;;
55483;SDS011;41345;51.704;5.146;2023-04-01T16:23:00;44.78;;;40.88;;
55483;SDS011;41345;51.704;5.146;2023-04-01T16:43:44;43.75;;;40.22;;
55483;SDS011;41345;51.704;5.146;2023-04-01T16:48:52;45.20;;;41.70;;
55483;SDS011;41345;51.704;5.146;2023-04-01T16:54:05;43.38;;;40.00;;
55483;SDS011;41345;51.704;5.146;2023-04-01T16:59:29;41.92;;;38.53;;
55483;SDS011;41345;51.704;5.146;2023-04-01T17:04:32;39.67;;;36.78;;
55483;SDS011;41345;51.704;5.146;2023-04-01T17:45:21;37.08;;;34.58;;
55483;SDS011;41345;51.704;5.146;2023-04-01T17:50:23;40.15;;;37.45;;
55483;SDS011;41345;51.704;5.146;2023-04-01T18:00:48;38.53;;;35.72;;
55483;SDS011;41345;51.704;5.146;2023-04-01T18:06:03;38.90;;;35.95;;
55483;SDS011;41345;51.704;5.146;2023-04-01T18:21:41;40.53;;;37.53;;
55483;SDS011;41345;51.704;5.146;2023-04-01T18:26:44;41.13;;;37.95;;
55483;SDS011;41345;51.704;5.146;2023-04-01T18:31:48;41.13;;;38.08;;
55483;SDS011;41345;51.704;5.146;2023-04-01T18:36:55;39.30;;;36.25;;
55483;SDS011;41345;51.704;5.146;2023-04-01T18:57:18;42.40;;;38.83;;
55483;SDS011;41345;51.704;5.146;2023-04-01T19:02:35;41.03;;;37.92;;
55483;SDS011;41345;51.704;5.146;2023-04-01T19:18:11;38.53;;;35.53;;
55483;SDS011;41345;51.704;5.146;2023-04-01T19:33:42;37.03;;;34.22;;
55483;SDS011;41345;51.704;5.146;2023-04-01T19:43:52;37.13;;;34.45;;
55483;SDS011;41345;51.704;5.146;2023-04-01T19:59:02;37.92;;;34.92;;
55483;SDS011;41345;51.704;5.146;2023-04-01T20:04:10;34.92;;;32.33;;
55483;SDS011;41345;51.704;5.146;2023-04-01T20:19:27;37.15;;;34.35;;
55483;SDS011;41345;51.704;5.146;2023-04-01T20:45:20;37.40;;;34.70;;
55483;SDS011;41345;51.704;5.146;2023-04-01T21:21:23;38.75;;;36.05;;
55483;SDS011;41345;51.704;5.146;2023-04-01T21:26:32;40.03;;;37.20;;
55483;SDS011;41345;51.704;5.146;2023-04-01T21:47:01;40.42;;;37.53;;
55483;SDS011;41345;51.704;5.146;2023-04-01T22:07:22;47.78;;;43.47;;
55483;SDS011;41345;51.704;5.146;2023-04-01T22:12:35;45.90;;;42.20;;
55483;SDS011;41345;51.704;5.146;2023-04-01T22:43:15;42.30;;;39.08;;
55483;SDS011;41345;51.704;5.146;2023-04-01T22:58:56;41.80;;;38.67;;
55483;SDS011;41345;51.704;5.146;2023-04-01T23:04:00;43.28;;;39.97;;
55483;SDS011;41345;51.704;5.146;2023-04-01T23:09:15;42.00;;;38.90;;
55483;SDS011;41345;51.704;5.146;2023-04-01T23:19:24;43.45;;;40.10;;
55483;SDS011;41345;51.704;5.146;2023-04-01T23:24:33;44.78;;;41.08;;
55483;SDS011;41345;51.704;5.146;2023-04-01T23:29:38;41.28;;;38.08;;
55483;SDS011;41345;51.704;5.146;2023-04-01T23:34:39;41.97;;;38.72;;
55483;SDS011;41345;51.704;5.146;2023-04-01T23:39:50;40.25;;;37.28;;
55483;SDS011;41345;51.704;5.146;2023-04-01T23:44:58;42.33;;;39.17;;
55483;SDS011;41345;51.704;5.146;2023-04-01T23:50:03;42.38;;;38.95;;
55483;SDS011;41345;51.704;5.146;2023-04-01T23:55:12;45.35;;;41.75;;
